createdAt,value
2023-02-12T00:02:09.613Z,87.60
2023-02-12T00:07:11.431Z,87.35
2023-02-12T00:12:13.633Z,87.44
2023-02-12T00:17:15.634Z,87.45
2023-02-12T00:22:17.671Z,87.13
2023-02-12T00:27:19.731Z,87.20
2023-02-12T00:32:24.770Z,87.35
2023-02-12T00:37:26.788Z,87.48
2023-02-12T00:42:28.791Z,87.48
2023-02-12T00:47:31.152Z,87.47
2023-02-12T00:52:33.324Z,87.41
2023-02-12T00:57:35.476Z,87.78
2023-02-12T01:02:37.641Z,87.75
2023-02-12T01:07:41.888Z,87.73
2023-02-12T01:12:43.741Z,87.73
2023-02-12T01:17:46.303Z,87.87
2023-02-12T01:22:48.320Z,87.68
2023-02-12T01:27:54.120Z,87.72
2023-02-12T01:33:46.118Z,87.85
2023-02-12T01:38:48.261Z,87.82
2023-02-12T01:44:06.530Z,87.78
2023-02-12T01:49:42.844Z,88.02
2023-02-12T01:54:44.763Z,88.06
2023-02-12T01:59:50.670Z,87.92
2023-02-12T02:04:59.882Z,88.05
2023-02-12T02:10:04.021Z,87.91
2023-02-12T02:15:07.186Z,88.00
2023-02-12T02:20:48.298Z,88.05
2023-02-12T02:26:09.165Z,88.47
2023-02-12T02:31:40.045Z,88.52
2023-02-12T02:37:06.267Z,88.27
2023-02-12T02:42:40.518Z,88.32
2023-02-12T02:47:58.430Z,88.21
2023-02-12T02:53:06.600Z,88.20
2023-02-12T02:58:42.871Z,87.88
2023-02-12T03:03:52.353Z,88.11
2023-02-12T03:09:03.706Z,88.24
2023-02-12T03:14:18.300Z,88.03
2023-02-12T03:19:36.626Z,88.13
2023-02-12T03:24:54.084Z,88.09
2023-02-12T03:29:58.670Z,88.16
2023-02-12T03:35:22.803Z,88.03
2023-02-12T03:40:38.433Z,87.92
2023-02-12T03:46:01.328Z,88.08
2023-02-12T03:51:17.735Z,88.07
2023-02-12T03:56:26.271Z,87.91
2023-02-12T04:01:29.204Z,87.83
2023-02-12T04:06:31.544Z,88.02
2023-02-12T04:11:36.416Z,88.05
2023-02-12T04:16:48.330Z,88.08
2023-02-12T04:22:09.924Z,88.04
2023-02-12T04:27:26.521Z,87.93
2023-02-12T04:32:39.777Z,87.63
2023-02-12T04:38:19.865Z,87.64
2023-02-12T04:43:36.967Z,87.84
2023-02-12T04:48:59.354Z,87.42
2023-02-12T04:54:01.210Z,87.55
2023-02-12T04:59:03.317Z,87.67
2023-02-12T05:04:11.549Z,87.26
2023-02-12T05:09:19.027Z,87.36
2023-02-12T05:14:20.920Z,87.29
2023-02-12T05:19:22.719Z,87.39
2023-02-12T05:24:24.650Z,87.32
2023-02-12T05:29:26.596Z,87.32
2023-02-12T05:34:28.464Z,87.38
2023-02-12T05:39:30.376Z,87.33
2023-02-12T05:44:32.251Z,87.10
2023-02-12T05:49:34.675Z,87.38
2023-02-12T05:54:36.672Z,87.23
2023-02-12T05:59:39.507Z,87.26
2023-02-12T06:04:41.678Z,87.09
2023-02-12T06:09:43.510Z,87.11
2023-02-12T06:14:45.337Z,87.09
2023-02-12T06:19:56.077Z,87.09
2023-02-12T06:24:58.087Z,87.03
2023-02-12T06:30:00.134Z,86.97
2023-02-12T06:35:02.000Z,87.28
2023-02-12T06:40:07.293Z,86.88
2023-02-12T06:45:09.353Z,87.05
2023-02-12T06:50:11.689Z,86.91
2023-02-12T06:55:13.773Z,86.84
2023-02-12T07:00:16.144Z,86.88
2023-02-12T07:05:43.416Z,86.89
2023-02-12T07:10:50.141Z,87.01
2023-02-12T07:15:51.981Z,86.75
2023-02-12T07:21:19.725Z,86.85
2023-02-12T07:26:22.393Z,86.86
2023-02-12T07:31:24.834Z,86.68
2023-02-12T07:36:30.378Z,86.75
2023-02-12T07:41:35.582Z,86.70
2023-02-12T07:46:42.067Z,86.69
2023-02-12T07:51:43.952Z,86.82
2023-02-12T07:56:47.483Z,86.62
2023-02-12T08:01:51.566Z,86.57
2023-02-12T08:06:55.971Z,86.66
2023-02-12T08:11:59.077Z,86.29
2023-02-12T08:17:08.480Z,86.79
2023-02-12T08:22:10.240Z,86.61
2023-02-12T08:27:12.105Z,86.66
2023-02-12T08:32:14.786Z,86.70
2023-02-12T08:37:16.942Z,86.89
2023-02-12T08:42:44.806Z,86.99
2023-02-12T08:47:48.337Z,86.94
2023-02-12T08:52:50.375Z,86.98
2023-02-12T08:58:03.060Z,86.72
2023-02-12T09:03:06.689Z,87.12
2023-02-12T09:08:08.796Z,87.05
2023-02-12T09:13:13.341Z,86.83
2023-02-12T09:18:15.913Z,86.86
2023-02-12T09:23:17.847Z,86.90
2023-02-12T09:28:19.734Z,86.77
2023-02-12T09:33:23.077Z,86.73
2023-02-12T09:38:24.977Z,87.04
2023-02-12T09:43:53.173Z,86.83
2023-02-12T09:49:09.841Z,86.96
2023-02-12T09:54:17.649Z,86.95
2023-02-12T09:59:35.227Z,87.05
2023-02-12T10:04:37.214Z,87.09
2023-02-12T10:09:57.071Z,86.79
2023-02-12T10:15:27.615Z,87.17
2023-02-12T10:20:33.526Z,86.96
2023-02-12T10:25:45.113Z,86.91
2023-02-12T10:30:56.878Z,87.08
2023-02-12T10:36:23.361Z,87.15
2023-02-12T10:41:28.951Z,87.02
2023-02-12T10:46:32.247Z,87.08
2023-02-12T10:51:48.957Z,86.94
2023-02-12T10:56:51.598Z,87.18
2023-02-12T11:01:53.517Z,87.29
2023-02-12T11:07:08.984Z,87.19
2023-02-12T11:12:32.138Z,87.26
2023-02-12T11:17:36.110Z,87.01
2023-02-12T11:22:38.175Z,87.16
2023-02-12T11:27:39.968Z,87.01
2023-02-12T11:32:41.962Z,87.12
2023-02-12T11:37:46.422Z,87.23
2023-02-12T11:43:09.690Z,87.18
2023-02-12T11:48:22.826Z,87.29
2023-02-12T11:53:37.645Z,87.19
2023-02-12T11:58:40.369Z,87.08
2023-02-12T12:03:48.326Z,87.19
2023-02-12T12:08:55.047Z,86.96
2023-02-12T12:14:08.271Z,86.96
2023-02-12T12:19:38.716Z,86.90
2023-02-12T12:25:06.931Z,86.92
2023-02-12T12:30:22.323Z,86.90
2023-02-12T12:35:37.695Z,86.79
2023-02-12T12:41:03.934Z,86.83
2023-02-12T12:46:24.459Z,86.75
2023-02-12T12:51:32.659Z,86.72
2023-02-12T12:56:46.682Z,86.87
2023-02-12T13:02:19.386Z,86.80
2023-02-12T13:08:18.607Z,86.82
2023-02-12T13:13:26.626Z,86.80
2023-02-12T13:18:33.283Z,86.70
2023-02-12T13:23:57.577Z,86.76
2023-02-12T13:29:13.024Z,86.79
2023-02-12T13:34:17.847Z,86.63
2023-02-12T13:39:34.114Z,86.76
2023-02-12T13:45:06.702Z,86.75
2023-02-12T13:50:46.112Z,86.68
2023-02-12T13:56:07.814Z,86.60
2023-02-12T14:01:36.506Z,86.65
2023-02-12T14:06:38.596Z,86.67
2023-02-12T14:11:53.402Z,86.61
2023-02-12T14:16:55.394Z,86.67
2023-02-12T14:21:57.185Z,86.69
2023-02-12T14:26:59.299Z,86.77
2023-02-12T14:32:01.302Z,86.57
2023-02-12T14:37:36.596Z,86.43
2023-02-12T14:42:42.418Z,86.59
2023-02-12T14:47:51.185Z,86.59
2023-02-12T14:53:05.328Z,86.62
2023-02-12T14:58:19.665Z,86.66
2023-02-12T15:03:28.021Z,86.56
2023-02-12T15:08:45.403Z,86.61
2023-02-12T15:13:55.216Z,86.54
2023-02-12T15:19:22.349Z,86.52
2023-02-12T15:24:26.657Z,86.45
2023-02-12T15:29:42.058Z,86.43
2023-02-12T15:34:48.061Z,86.58
2023-02-12T15:39:53.726Z,86.54
2023-02-12T15:45:10.423Z,86.67
2023-02-12T15:50:14.773Z,86.46
2023-02-12T15:55:23.237Z,86.39
2023-02-12T16:00:41.589Z,86.70
2023-02-12T16:05:43.809Z,86.47
2023-02-12T16:10:51.739Z,86.33
2023-02-12T16:16:11.605Z,86.39
2023-02-12T16:21:19.503Z,86.30
2023-02-12T16:26:23.244Z,86.34
2023-02-12T16:31:27.253Z,86.03
2023-02-12T16:36:32.129Z,86.08
2023-02-12T16:41:52.618Z,86.41
2023-02-12T16:46:59.683Z,86.17
2023-02-12T16:52:39.127Z,86.50
2023-02-12T16:57:41.142Z,86.33
2023-02-12T17:02:43.624Z,86.46
2023-02-12T17:07:47.013Z,86.23
2023-02-12T17:12:51.624Z,86.29
2023-02-12T17:23:11.726Z,86.22
2023-02-12T17:28:13.598Z,86.24
2023-02-12T17:33:16.776Z,86.30
2023-02-12T17:38:19.141Z,86.36
2023-02-12T17:43:21.375Z,86.43
2023-02-12T17:48:25.195Z,86.42
2023-02-12T17:53:32.760Z,86.46
2023-02-12T17:58:34.541Z,86.33
2023-02-12T18:03:36.857Z,86.42
2023-02-12T18:08:39.031Z,86.22
2023-02-12T18:13:42.655Z,86.20
2023-02-12T18:18:44.722Z,86.25
2023-02-12T18:23:47.061Z,86.21
2023-02-12T18:28:49.533Z,86.38
2023-02-12T18:33:51.893Z,86.42
2023-02-12T18:38:53.770Z,86.38
2023-02-12T18:43:58.154Z,86.35
2023-02-12T18:49:00.805Z,86.25
2023-02-12T18:54:07.429Z,86.38
2023-02-12T18:59:13.031Z,86.50
2023-02-12T19:04:16.290Z,86.44
2023-02-12T19:09:21.589Z,86.20
2023-02-12T19:14:24.699Z,86.27
2023-02-12T19:19:27.675Z,86.23
2023-02-12T19:24:44.399Z,86.15
2023-02-12T19:29:47.621Z,86.28
2023-02-12T19:34:49.352Z,86.46
2023-02-12T19:39:51.251Z,86.35
2023-02-12T19:44:53.337Z,86.50
2023-02-12T19:49:55.814Z,86.52
2023-02-12T19:54:58.722Z,86.50
2023-02-12T20:00:00.506Z,86.27
2023-02-12T20:05:02.451Z,86.23
2023-02-12T20:10:05.002Z,86.47
2023-02-12T20:15:07.471Z,86.30
2023-02-12T20:20:10.428Z,86.30
2023-02-12T20:25:12.458Z,86.38
2023-02-12T20:30:24.181Z,86.31
2023-02-12T20:35:26.044Z,86.45
2023-02-12T20:40:28.081Z,86.61
2023-02-12T20:45:29.915Z,86.43
2023-02-12T20:50:31.735Z,86.25
2023-02-12T20:55:33.974Z,86.25
2023-02-12T21:00:36.016Z,86.28
2023-02-12T21:05:38.031Z,86.38
2023-02-12T21:10:39.800Z,86.49
2023-02-12T21:15:41.950Z,86.47
2023-02-12T21:20:43.777Z,86.10
2023-02-12T21:25:45.785Z,86.11
2023-02-12T21:30:47.586Z,86.23
2023-02-12T21:35:49.394Z,86.39
2023-02-12T21:40:51.373Z,86.39
2023-02-12T21:45:53.209Z,86.16
2023-02-12T21:50:57.296Z,86.27
2023-02-12T21:56:05.649Z,86.41
2023-02-12T22:01:09.864Z,86.15
2023-02-12T22:06:14.034Z,86.33
2023-02-12T22:11:16.562Z,86.41
2023-02-12T22:16:24.611Z,86.21
2023-02-12T22:21:29.937Z,86.54
2023-02-12T22:26:32.567Z,86.43
2023-02-12T22:31:36.690Z,86.38
2023-02-12T22:36:39.642Z,86.48
2023-02-12T22:41:44.501Z,86.54
2023-02-12T22:46:46.298Z,86.66
2023-02-12T22:51:48.335Z,86.50
2023-02-12T22:56:52.023Z,86.49
2023-02-12T23:01:53.821Z,86.36
2023-02-12T23:07:04.427Z,86.49
2023-02-12T23:12:07.999Z,86.43
2023-02-12T23:17:09.831Z,86.38
2023-02-12T23:22:11.715Z,86.35
2023-02-12T23:27:13.740Z,86.52
2023-02-12T23:32:15.545Z,86.44
2023-02-12T23:37:17.480Z,86.34
2023-02-12T23:42:19.299Z,86.20
2023-02-12T23:47:21.169Z,86.43
2023-02-12T23:52:22.967Z,86.33
2023-02-12T23:57:25.083Z,86.21
